createdAt,value
2019-05-21T00:01:39.514Z,13.91
2019-05-21T00:03:45.943Z,13.90
2019-05-21T00:05:52.386Z,13.88
2019-05-21T00:07:58.859Z,13.88
2019-05-21T00:10:08.537Z,13.86
2019-05-21T00:12:15.067Z,13.83
2019-05-21T00:14:21.473Z,13.82
2019-05-21T00:16:27.887Z,13.80
2019-05-21T00:18:34.417Z,13.79
2019-05-21T00:20:40.902Z,13.77
2019-05-21T00:22:47.311Z,13.75
2019-05-21T00:24:53.845Z,13.75
2019-05-21T00:27:00.368Z,13.74
2019-05-21T00:30:01.546Z,13.75
2019-05-21T00:33:03.455Z,13.75
2019-05-21T00:36:05.799Z,13.74
2019-05-21T00:39:06.766Z,13.75
2019-05-21T00:42:00.527Z,13.77
2019-05-21T00:44:07.208Z,13.78
2019-05-21T00:46:13.799Z,13.77
2019-05-21T00:48:20.240Z,13.78
2019-05-21T00:50:26.726Z,13.78
2019-05-21T00:52:33.118Z,13.79
2019-05-21T00:54:39.655Z,13.81
2019-05-21T00:56:46.153Z,13.81
2019-05-21T00:58:52.596Z,13.82
2019-05-21T01:00:59.032Z,13.84
2019-05-21T01:03:05.485Z,13.85
2019-05-21T01:05:12.026Z,13.86
2019-05-21T01:07:18.505Z,13.88
2019-05-21T01:09:25.058Z,13.89
2019-05-21T01:11:31.487Z,13.91
2019-05-21T01:13:37.904Z,13.91
2019-05-21T01:15:44.671Z,13.93
2019-05-21T01:17:51.167Z,13.94
2019-05-21T01:19:57.648Z,13.95
2019-05-21T01:22:04.134Z,13.93
2019-05-21T01:24:10.712Z,13.93
2019-05-21T01:26:17.206Z,13.94
2019-05-21T01:28:23.700Z,13.93
2019-05-21T01:30:30.119Z,13.89
2019-05-21T01:32:36.493Z,13.87
2019-05-21T01:34:42.970Z,13.86
2019-05-21T01:36:49.397Z,13.84
2019-05-21T01:38:55.777Z,13.84
2019-05-21T01:41:02.244Z,13.83
2019-05-21T01:43:08.734Z,13.81
2019-05-21T01:45:15.305Z,13.81
2019-05-21T01:47:21.727Z,13.79
2019-05-21T01:49:28.144Z,13.80
2019-05-21T01:51:34.554Z,13.79
2019-05-21T01:53:40.996Z,13.79
2019-05-21T01:55:47.418Z,13.78
2019-05-21T01:57:53.830Z,13.80
2019-05-21T02:00:00.207Z,13.78
2019-05-21T02:02:06.654Z,13.77
2019-05-21T02:04:13.139Z,13.75
2019-05-21T02:06:19.823Z,13.74
2019-05-21T02:08:26.262Z,13.71
2019-05-21T02:10:32.811Z,13.69
2019-05-21T02:12:39.183Z,13.67
2019-05-21T02:14:45.618Z,13.66
2019-05-21T02:16:52.040Z,13.63
2019-05-21T02:18:58.451Z,13.64
2019-05-21T02:21:04.982Z,13.66
2019-05-21T02:23:11.373Z,13.64
2019-05-21T02:25:18.666Z,13.64
2019-05-21T02:27:25.173Z,13.65
2019-05-21T02:29:32.663Z,13.65
2019-05-21T02:31:39.191Z,13.68
2019-05-21T02:33:45.612Z,13.68
2019-05-21T02:35:54.578Z,13.72
2019-05-21T02:38:00.153Z,13.74
2019-05-21T02:40:08.031Z,13.76
2019-05-21T02:42:14.473Z,13.77
2019-05-21T02:44:20.906Z,13.79
2019-05-21T02:46:27.418Z,13.83
2019-05-21T02:48:33.810Z,13.83
2019-05-21T02:50:40.287Z,13.85
2019-05-21T02:52:46.721Z,13.87
2019-05-21T02:54:53.594Z,13.89
2019-05-21T02:56:59.994Z,13.92
2019-05-21T02:59:06.613Z,13.94
2019-05-21T03:01:17.726Z,13.95
2019-05-21T03:03:24.562Z,13.98
2019-05-21T03:05:31.089Z,14.05
2019-05-21T03:07:37.555Z,14.08
2019-05-21T03:09:43.998Z,14.11
2019-05-21T03:11:50.499Z,14.17
2019-05-21T03:13:57.003Z,14.23
2019-05-21T03:16:03.642Z,14.26
2019-05-21T03:18:10.411Z,14.28
2019-05-21T03:20:16.981Z,14.31
2019-05-21T03:22:23.492Z,14.37
2019-05-21T03:24:29.849Z,14.41
2019-05-21T03:26:36.360Z,14.49
2019-05-21T03:28:42.780Z,14.55
2019-05-21T03:30:49.299Z,14.60
2019-05-21T03:32:55.727Z,14.68
2019-05-21T03:35:02.381Z,14.72
2019-05-21T03:37:10.215Z,14.78
2019-05-21T03:39:19.478Z,14.85
2019-05-21T03:41:24.939Z,14.93
2019-05-21T03:43:32.847Z,15.04
2019-05-21T03:45:39.456Z,15.16
2019-05-21T03:47:47.423Z,15.31
2019-05-21T03:49:54.509Z,15.44
2019-05-21T03:52:00.901Z,15.49
2019-05-21T03:54:07.351Z,15.59
2019-05-21T03:56:13.940Z,15.67
2019-05-21T03:58:20.940Z,15.67
2019-05-21T04:00:27.501Z,15.72
2019-05-21T04:02:33.927Z,15.87
2019-05-21T04:04:41.605Z,15.94
2019-05-21T04:06:51.761Z,16.03
2019-05-21T04:08:56.089Z,16.28
2019-05-21T04:11:02.553Z,16.96
2019-05-21T04:13:09.437Z,17.92
2019-05-21T04:15:17.818Z,19.03
2019-05-21T04:17:28.647Z,20.03
2019-05-21T04:19:36.711Z,21.18
2019-05-21T04:21:43.121Z,22.30
2019-05-21T04:23:50.456Z,22.80
2019-05-21T04:25:59.979Z,23.51
2019-05-21T04:28:07.356Z,23.97
2019-05-21T04:30:16.932Z,24.14
2019-05-21T04:32:23.302Z,24.88
2019-05-21T04:34:29.726Z,24.98
2019-05-21T04:36:36.233Z,25.23
2019-05-21T04:38:42.648Z,25.73
2019-05-21T04:40:50.678Z,25.29
2019-05-21T04:43:01.438Z,24.62
2019-05-21T04:45:08.459Z,24.72
2019-05-21T04:47:15.636Z,25.31
2019-05-21T04:49:22.022Z,25.69
2019-05-21T04:51:28.466Z,25.90
2019-05-21T04:53:34.962Z,25.67
2019-05-21T04:55:41.426Z,26.08
2019-05-21T04:57:47.847Z,26.65
2019-05-21T04:59:54.248Z,27.37
2019-05-21T05:02:00.636Z,28.06
2019-05-21T05:04:08.038Z,28.21
2019-05-21T05:06:14.571Z,28.41
2019-05-21T05:08:22.500Z,28.73
2019-05-21T05:10:29.039Z,28.77
2019-05-21T05:12:36.535Z,28.80
2019-05-21T05:14:42.938Z,28.89
2019-05-21T05:16:49.447Z,29.20
2019-05-21T05:18:55.935Z,29.88
2019-05-21T05:21:02.295Z,29.34
2019-05-21T05:23:08.686Z,28.52
2019-05-21T05:25:16.677Z,28.38
2019-05-21T05:27:23.177Z,28.98
2019-05-21T05:29:29.596Z,29.50
2019-05-21T05:31:36.012Z,30.20
2019-05-21T05:33:42.440Z,30.43
2019-05-21T05:35:48.930Z,30.79
2019-05-21T05:37:55.349Z,30.51
2019-05-21T05:40:01.808Z,29.53
2019-05-21T05:42:08.344Z,28.02
2019-05-21T05:44:14.875Z,26.48
2019-05-21T05:46:21.236Z,25.33
2019-05-21T05:48:29.218Z,25.12
2019-05-21T05:50:37.294Z,25.35
2019-05-21T05:52:43.748Z,26.18
2019-05-21T05:54:50.225Z,27.01
2019-05-21T05:56:56.644Z,26.68
2019-05-21T05:59:03.146Z,27.28
2019-05-21T06:01:09.564Z,29.19
2019-05-21T06:03:15.994Z,30.92
2019-05-21T06:05:22.508Z,32.60
2019-05-21T06:07:28.948Z,32.66
2019-05-21T06:09:35.345Z,30.58
2019-05-21T06:11:41.755Z,28.99
2019-05-21T06:13:49.664Z,28.05
2019-05-21T06:15:57.117Z,28.72
2019-05-21T06:18:03.580Z,29.78
2019-05-21T06:20:10.897Z,31.08
2019-05-21T06:22:17.369Z,30.44
2019-05-21T06:24:23.880Z,31.90
2019-05-21T06:26:30.385Z,32.83
2019-05-21T06:28:36.805Z,33.73
2019-05-21T06:30:43.257Z,34.31
2019-05-21T06:32:49.669Z,33.95
2019-05-21T06:34:56.082Z,34.12
2019-05-21T06:37:03.637Z,34.87
2019-05-21T06:39:11.398Z,34.40
2019-05-21T06:41:17.910Z,33.80
2019-05-21T06:43:24.358Z,33.93
2019-05-21T06:45:30.848Z,32.74
2019-05-21T06:47:37.409Z,30.81
2019-05-21T06:49:43.843Z,29.04
2019-05-21T06:51:50.254Z,27.66
2019-05-21T06:53:56.728Z,26.84
2019-05-21T06:56:07.182Z,26.78
2019-05-21T06:58:11.166Z,26.90
2019-05-21T07:00:20.482Z,27.70
2019-05-21T07:02:26.923Z,28.71
2019-05-21T07:04:33.297Z,29.09
2019-05-21T07:06:39.715Z,29.22
2019-05-21T07:08:46.158Z,30.36
2019-05-21T07:10:52.549Z,28.99
2019-05-21T07:12:58.983Z,27.45
2019-05-21T07:15:09.319Z,25.99
2019-05-21T07:17:15.795Z,24.35
2019-05-21T07:19:22.388Z,23.54
2019-05-21T07:21:28.917Z,23.07
2019-05-21T07:23:35.314Z,22.45
2019-05-21T07:25:41.732Z,22.45
2019-05-21T07:27:48.131Z,22.31
2019-05-21T07:29:54.539Z,22.34
2019-05-21T07:32:00.959Z,22.15
2019-05-21T07:34:07.428Z,21.86
2019-05-21T07:36:13.989Z,21.83
2019-05-21T07:38:20.501Z,21.61
2019-05-21T07:40:26.921Z,21.69
2019-05-21T07:42:33.407Z,21.74
2019-05-21T07:44:39.851Z,21.97
2019-05-21T07:46:46.399Z,21.97
2019-05-21T07:48:52.891Z,21.83
2019-05-21T07:50:59.373Z,21.66
2019-05-21T07:53:07.382Z,21.63
2019-05-21T07:55:13.971Z,21.43
2019-05-21T07:57:20.450Z,21.39
2019-05-21T07:59:26.838Z,21.14
2019-05-21T08:01:33.305Z,21.07
2019-05-21T08:03:39.670Z,21.23
2019-05-21T08:05:47.161Z,21.79
2019-05-21T08:07:53.645Z,22.24
2019-05-21T08:10:00.040Z,22.78
2019-05-21T08:12:27.919Z,22.74
2019-05-21T08:14:14.860Z,22.27
2019-05-21T08:16:21.334Z,21.63
2019-05-21T08:18:27.723Z,21.36
2019-05-21T08:20:34.122Z,21.00
2019-05-21T08:22:40.513Z,20.75
2019-05-21T08:24:46.969Z,20.51
2019-05-21T08:26:53.359Z,20.25
2019-05-21T08:28:59.756Z,20.28
2019-05-21T08:31:06.301Z,20.29
2019-05-21T08:33:12.704Z,20.11
2019-05-21T08:35:19.083Z,19.72
2019-05-21T08:37:25.548Z,19.62
2019-05-21T08:39:31.987Z,19.52
2019-05-21T08:41:38.446Z,19.42
2019-05-21T08:43:45.191Z,19.38
2019-05-21T08:45:51.585Z,19.55
2019-05-21T08:47:58.183Z,19.81
2019-05-21T08:50:09.383Z,20.56
2019-05-21T08:52:15.773Z,21.08
2019-05-21T08:54:23.794Z,21.04
2019-05-21T08:56:30.988Z,20.68
2019-05-21T08:58:37.435Z,20.07
2019-05-21T09:00:43.888Z,19.83
2019-05-21T09:02:50.373Z,19.49
2019-05-21T09:04:56.908Z,19.21
2019-05-21T09:07:03.423Z,19.13
2019-05-21T09:09:09.822Z,19.05
2019-05-21T09:11:16.336Z,19.09
2019-05-21T09:13:22.697Z,19.21
2019-05-21T09:15:29.102Z,19.42
2019-05-21T09:17:35.501Z,19.51
2019-05-21T09:19:41.937Z,19.68
2019-05-21T09:21:48.432Z,20.02
2019-05-21T09:23:54.848Z,20.27
2019-05-21T09:26:01.301Z,20.41
2019-05-21T09:28:07.965Z,20.18
2019-05-21T09:30:15.448Z,20.04
2019-05-21T09:32:22.009Z,20.46
2019-05-21T09:34:28.488Z,21.10
2019-05-21T09:36:34.938Z,20.83
2019-05-21T09:38:41.371Z,20.77
2019-05-21T09:40:47.862Z,20.92
2019-05-21T09:42:54.376Z,20.85
2019-05-21T09:45:00.802Z,20.86
2019-05-21T09:47:07.261Z,20.90
2019-05-21T09:49:13.752Z,21.04
2019-05-21T09:51:21.942Z,21.05
2019-05-21T09:53:28.425Z,20.87
2019-05-21T09:55:34.942Z,20.95
2019-05-21T09:57:45.869Z,21.07
2019-05-21T09:59:53.968Z,21.04
2019-05-21T10:02:03.109Z,21.06
2019-05-21T10:04:09.546Z,21.14
2019-05-21T10:06:16.006Z,21.29
2019-05-21T10:08:22.477Z,21.56
2019-05-21T10:10:28.954Z,21.51
2019-05-21T10:12:35.433Z,21.64
2019-05-21T10:14:41.844Z,21.79
2019-05-21T10:16:48.300Z,21.93
2019-05-21T10:18:54.872Z,22.35
2019-05-21T10:21:01.334Z,22.99
2019-05-21T10:23:07.897Z,23.39
2019-05-21T10:25:16.013Z,23.46
2019-05-21T10:27:22.802Z,23.19
2019-05-21T10:29:29.248Z,23.17
2019-05-21T10:31:35.660Z,23.18
2019-05-21T10:33:42.086Z,23.51
2019-05-21T10:35:48.484Z,23.67
2019-05-21T10:37:55.642Z,23.43
2019-05-21T10:40:03.315Z,23.19
2019-05-21T10:42:09.892Z,23.16
2019-05-21T10:44:16.391Z,22.93
2019-05-21T10:46:22.908Z,23.16
2019-05-21T10:48:29.539Z,23.16
2019-05-21T10:50:36.071Z,23.22
2019-05-21T10:52:42.522Z,22.96
2019-05-21T10:54:49.014Z,22.72
2019-05-21T10:56:55.621Z,22.68
2019-05-21T10:59:02.071Z,22.58
2019-05-21T11:01:10.270Z,22.59
2019-05-21T11:03:24.574Z,22.74
2019-05-21T11:05:35.416Z,22.71
2019-05-21T11:07:43.296Z,22.65
2019-05-21T11:09:49.709Z,22.74
2019-05-21T11:11:56.148Z,22.56
2019-05-21T11:14:02.750Z,22.45
2019-05-21T11:16:09.279Z,22.54
2019-05-21T11:18:15.830Z,22.69
2019-05-21T11:20:22.487Z,22.72
2019-05-21T11:22:28.874Z,22.72
2019-05-21T11:24:35.306Z,22.75
2019-05-21T11:26:41.784Z,22.97
2019-05-21T11:28:48.212Z,23.20
2019-05-21T11:30:54.776Z,23.03
2019-05-21T11:33:01.265Z,22.82
2019-05-21T11:35:10.648Z,22.64
2019-05-21T11:37:17.103Z,22.56
2019-05-21T11:39:23.601Z,22.52
2019-05-21T11:41:30.124Z,22.45
2019-05-21T11:43:36.686Z,22.34
2019-05-21T11:45:43.469Z,22.14
2019-05-21T11:47:50.150Z,22.11
2019-05-21T11:49:56.625Z,22.13
2019-05-21T11:52:03.072Z,22.06
2019-05-21T11:54:09.595Z,21.87
2019-05-21T11:56:15.982Z,21.85
2019-05-21T11:58:22.520Z,21.78
2019-05-21T12:00:29.499Z,22.04
2019-05-21T12:02:35.873Z,22.33
2019-05-21T12:04:42.306Z,22.25
2019-05-21T12:06:49.746Z,22.32
2019-05-21T12:08:57.383Z,22.27
2019-05-21T12:11:04.017Z,22.37
2019-05-21T12:13:10.506Z,22.30
2019-05-21T12:15:17.418Z,22.31
2019-05-21T12:17:23.948Z,22.18
2019-05-21T12:19:30.369Z,22.19
2019-05-21T12:21:37.867Z,22.32
2019-05-21T12:23:44.410Z,22.45
2019-05-21T12:25:51.856Z,22.54
2019-05-21T12:27:58.315Z,22.57
2019-05-21T12:30:08.458Z,22.71
2019-05-21T12:32:14.906Z,23.10
2019-05-21T12:34:21.383Z,23.07
2019-05-21T12:36:27.898Z,23.12
2019-05-21T12:38:34.496Z,23.14
2019-05-21T12:40:40.901Z,23.06
2019-05-21T12:42:47.393Z,23.13
2019-05-21T12:44:54.296Z,23.08
2019-05-21T12:47:00.779Z,23.15
2019-05-21T12:49:07.290Z,23.18
2019-05-21T12:51:13.935Z,22.94
2019-05-21T12:53:20.616Z,22.98
2019-05-21T12:55:27.046Z,23.34
2019-05-21T12:57:33.576Z,23.60
2019-05-21T12:59:40.206Z,23.45
2019-05-21T13:01:46.572Z,23.37
2019-05-21T13:03:55.391Z,23.44
2019-05-21T13:06:02.284Z,23.35
2019-05-21T13:08:08.921Z,23.29
2019-05-21T13:10:15.875Z,23.14
2019-05-21T13:12:22.285Z,22.87
2019-05-21T13:14:28.791Z,22.89
2019-05-21T13:16:35.278Z,22.92
2019-05-21T13:18:41.797Z,22.92
2019-05-21T13:20:48.294Z,23.06
2019-05-21T13:22:54.773Z,23.14
2019-05-21T13:25:01.227Z,23.06
2019-05-21T13:27:09.052Z,22.53
2019-05-21T13:29:15.608Z,21.22
2019-05-21T13:31:22.416Z,20.56
2019-05-21T13:33:28.937Z,20.28
2019-05-21T13:35:35.459Z,20.10
2019-05-21T13:37:42.059Z,19.38
2019-05-21T13:39:50.432Z,18.91
2019-05-21T13:41:56.590Z,18.75
2019-05-21T13:44:04.430Z,18.80
2019-05-21T13:46:10.865Z,18.91
2019-05-21T13:48:17.426Z,18.98
2019-05-21T13:50:23.965Z,19.04
2019-05-21T13:52:30.394Z,19.24
2019-05-21T13:54:36.993Z,19.50
2019-05-21T13:56:43.439Z,19.70
2019-05-21T13:58:49.928Z,19.82
2019-05-21T14:00:56.524Z,19.94
2019-05-21T14:03:03.420Z,20.09
2019-05-21T14:05:12.284Z,20.20
2019-05-21T14:07:17.990Z,20.36
2019-05-21T14:09:24.277Z,20.50
2019-05-21T14:11:30.908Z,20.62
2019-05-21T14:13:37.529Z,20.69
2019-05-21T14:15:44.008Z,20.82
2019-05-21T14:17:50.514Z,20.90
2019-05-21T14:19:56.927Z,20.96
2019-05-21T14:22:03.522Z,20.97
2019-05-21T14:24:10.113Z,21.08
2019-05-21T14:26:16.520Z,21.20
2019-05-21T14:28:22.999Z,21.23
2019-05-21T14:30:29.597Z,21.26
2019-05-21T14:32:36.019Z,21.36
2019-05-21T14:34:42.449Z,21.42
2019-05-21T14:36:48.897Z,21.58
2019-05-21T14:38:55.343Z,21.72
2019-05-21T14:41:01.724Z,21.84
2019-05-21T14:43:08.287Z,21.90
2019-05-21T14:45:15.903Z,21.99
2019-05-21T14:47:22.339Z,22.01
2019-05-21T14:49:28.744Z,21.89
2019-05-21T14:51:35.174Z,21.74
2019-05-21T14:53:41.571Z,21.60
2019-05-21T14:55:48.100Z,21.56
2019-05-21T14:57:54.526Z,21.52
2019-05-21T15:00:01.040Z,21.55
2019-05-21T15:02:07.805Z,21.61
2019-05-21T15:04:14.288Z,21.62
2019-05-21T15:06:20.775Z,21.59
2019-05-21T15:08:27.209Z,21.52
2019-05-21T15:10:47.266Z,21.38
2019-05-21T15:12:41.680Z,21.24
2019-05-21T15:14:48.037Z,21.19
2019-05-21T15:16:54.599Z,21.18
2019-05-21T15:19:01.258Z,21.20
2019-05-21T15:21:09.424Z,21.11
2019-05-21T15:23:15.992Z,21.17
2019-05-21T15:25:22.579Z,21.19
2019-05-21T15:27:30.128Z,21.27
2019-05-21T15:29:36.593Z,21.40
2019-05-21T15:31:42.979Z,21.53
2019-05-21T15:33:49.539Z,21.43
2019-05-21T15:35:55.979Z,21.25
2019-05-21T15:38:02.472Z,21.14
2019-05-21T15:40:09.979Z,21.11
2019-05-21T15:42:16.758Z,21.08
2019-05-21T15:44:23.158Z,21.04
2019-05-21T15:46:45.505Z,20.99
2019-05-21T15:48:37.771Z,20.80
2019-05-21T15:50:44.335Z,20.63
2019-05-21T15:52:50.787Z,20.46
2019-05-21T15:54:57.218Z,20.34
2019-05-21T15:57:03.702Z,20.26
2019-05-21T15:59:12.991Z,20.12
2019-05-21T16:01:19.373Z,20.07
2019-05-21T16:03:25.890Z,20.03
2019-05-21T16:05:32.309Z,20.09
2019-05-21T16:07:38.798Z,20.02
2019-05-21T16:09:45.363Z,19.97
2019-05-21T16:11:51.785Z,19.97
2019-05-21T16:13:58.221Z,19.97
2019-05-21T16:16:04.979Z,19.89
2019-05-21T16:18:11.436Z,19.95
2019-05-21T16:20:19.368Z,19.96
2019-05-21T16:22:25.825Z,19.95
2019-05-21T16:24:32.743Z,19.95
2019-05-21T16:26:39.265Z,19.94
2019-05-21T16:28:45.679Z,19.92
2019-05-21T16:30:52.077Z,19.88
2019-05-21T16:32:59.787Z,19.79
2019-05-21T16:35:10.256Z,19.78
2019-05-21T16:37:16.977Z,19.69
2019-05-21T16:39:25.283Z,19.57
2019-05-21T16:41:44.244Z,19.48
2019-05-21T16:43:40.110Z,19.46
2019-05-21T16:45:46.522Z,19.38
2019-05-21T16:47:52.946Z,19.39
2019-05-21T16:49:59.547Z,19.37
2019-05-21T16:52:07.102Z,19.40
2019-05-21T16:54:13.548Z,19.42
2019-05-21T16:56:20.029Z,19.40
2019-05-21T16:58:26.462Z,19.40
2019-05-21T17:00:33.491Z,19.40
2019-05-21T17:02:39.986Z,19.41
2019-05-21T17:04:46.404Z,19.43
2019-05-21T17:06:52.796Z,19.38
2019-05-21T17:08:59.175Z,19.35
2019-05-21T17:11:05.697Z,19.21
2019-05-21T17:13:12.701Z,19.19
2019-05-21T17:15:19.413Z,19.14
2019-05-21T17:17:25.878Z,19.07
2019-05-21T17:19:32.385Z,18.98
2019-05-21T17:21:39.046Z,18.88
2019-05-21T17:23:45.419Z,18.78
2019-05-21T17:25:51.911Z,18.67
2019-05-21T17:27:58.318Z,18.65
2019-05-21T17:30:08.926Z,18.60
2019-05-21T17:32:15.352Z,18.52
2019-05-21T17:34:21.803Z,18.44
2019-05-21T17:36:28.274Z,18.38
2019-05-21T17:38:35.068Z,18.27
2019-05-21T17:40:41.725Z,18.16
2019-05-21T17:42:48.662Z,18.10
2019-05-21T17:44:56.258Z,18.05
2019-05-21T17:47:02.756Z,17.93
2019-05-21T17:49:09.298Z,17.82
2019-05-21T17:51:15.705Z,17.75
2019-05-21T17:53:22.144Z,17.65
2019-05-21T17:55:28.790Z,17.59
2019-05-21T17:57:36.058Z,17.49
2019-05-21T17:59:42.592Z,17.43
2019-05-21T18:01:50.728Z,17.35
2019-05-21T18:03:57.231Z,17.31
2019-05-21T18:06:05.014Z,17.23
2019-05-21T18:08:12.025Z,17.17
2019-05-21T18:10:18.822Z,17.12
2019-05-21T18:12:32.162Z,17.02
2019-05-21T18:14:36.135Z,16.93
2019-05-21T18:16:43.012Z,16.85
2019-05-21T18:18:49.996Z,16.77
2019-05-21T18:20:57.150Z,16.68
2019-05-21T18:23:03.907Z,16.60
2019-05-21T18:25:11.587Z,16.53
2019-05-21T18:27:20.322Z,16.44
2019-05-21T18:29:26.788Z,16.35
2019-05-21T18:31:33.350Z,16.25
2019-05-21T18:33:39.819Z,16.18
2019-05-21T18:35:46.368Z,16.09
2019-05-21T18:37:53.104Z,16.00
2019-05-21T18:39:59.747Z,15.92
2019-05-21T18:42:21.267Z,15.84
2019-05-21T18:44:16.627Z,15.77
2019-05-21T18:46:23.211Z,15.71
2019-05-21T18:48:30.631Z,15.63
2019-05-21T18:50:37.463Z,15.58
2019-05-21T18:52:45.243Z,15.52
2019-05-21T18:54:52.985Z,15.45
2019-05-21T18:56:59.556Z,15.37
2019-05-21T18:59:06.149Z,15.31
2019-05-21T19:01:12.951Z,15.27
2019-05-21T19:03:25.229Z,15.20
2019-05-21T19:05:27.858Z,15.16
2019-05-21T19:07:35.864Z,15.10
2019-05-21T19:09:42.568Z,15.04
2019-05-21T19:11:49.035Z,14.97
2019-05-21T19:13:55.556Z,14.92
2019-05-21T19:16:02.126Z,14.85
2019-05-21T19:18:08.728Z,14.81
2019-05-21T19:20:16.355Z,14.75
2019-05-21T19:22:23.197Z,14.68
2019-05-21T19:24:30.674Z,14.63
2019-05-21T19:26:37.177Z,14.58
2019-05-21T19:28:43.669Z,14.55
2019-05-21T19:30:50.307Z,14.52
2019-05-21T19:32:56.674Z,14.50
2019-05-21T19:35:03.647Z,14.46
2019-05-21T19:37:10.942Z,14.43
2019-05-21T19:39:17.559Z,14.40
2019-05-21T19:41:24.351Z,14.35
2019-05-21T19:43:32.032Z,14.31
2019-05-21T19:45:38.893Z,14.25
2019-05-21T19:47:45.383Z,14.21
2019-05-21T19:49:51.829Z,14.15
2019-05-21T19:51:58.337Z,14.13
2019-05-21T19:54:05.076Z,14.10
2019-05-21T19:56:11.619Z,14.09
2019-05-21T19:58:18.538Z,14.05
2019-05-21T20:00:27.868Z,14.01
2019-05-21T20:02:35.048Z,13.97
2019-05-21T20:04:42.573Z,13.94
2019-05-21T20:06:49.351Z,13.93
2019-05-21T20:08:56.412Z,13.90
2019-05-21T20:11:04.049Z,13.87
2019-05-21T20:13:10.583Z,13.84
2019-05-21T20:15:18.537Z,13.82
2019-05-21T20:17:26.202Z,13.81
2019-05-21T20:19:33.051Z,13.79
2019-05-21T20:21:39.673Z,13.78
2019-05-21T20:23:47.278Z,13.73
2019-05-21T20:25:56.853Z,13.69
2019-05-21T20:28:03.091Z,13.66
2019-05-21T20:30:14.815Z,13.62
2019-05-21T20:32:23.207Z,13.59
2019-05-21T20:34:30.203Z,13.59
2019-05-21T20:36:36.810Z,13.57
2019-05-21T20:38:43.577Z,13.53
2019-05-21T20:40:52.447Z,13.50
2019-05-21T20:43:01.379Z,13.49
2019-05-21T20:45:11.613Z,13.47
2019-05-21T20:47:18.986Z,13.44
2019-05-21T20:49:25.755Z,13.44
2019-05-21T20:51:32.783Z,13.43
2019-05-21T20:53:39.379Z,13.40
2019-05-21T20:55:46.020Z,13.40
2019-05-21T20:57:53.862Z,13.38
2019-05-21T21:00:03.352Z,13.34
2019-05-21T21:02:13.145Z,13.32
2019-05-21T21:04:19.652Z,13.34
2019-05-21T21:06:35.294Z,13.32
2019-05-21T21:08:38.968Z,13.30
2019-05-21T21:10:45.571Z,13.29
2019-05-21T21:12:52.850Z,13.27
2019-05-21T21:14:59.434Z,13.26
2019-05-21T21:17:06.269Z,13.24
2019-05-21T21:19:12.945Z,13.20
2019-05-21T21:21:20.632Z,13.19
2019-05-21T21:23:29.263Z,13.17
2019-05-21T21:25:35.908Z,13.16
2019-05-21T21:27:42.643Z,13.13
2019-05-21T21:29:49.385Z,13.10
2019-05-21T21:31:56.282Z,13.10
2019-05-21T21:34:03.903Z,13.08
2019-05-21T21:36:10.362Z,13.07
2019-05-21T21:38:18.600Z,13.06
2019-05-21T21:40:25.284Z,13.04
2019-05-21T21:42:32.330Z,13.04
2019-05-21T21:44:39.420Z,13.04
2019-05-21T21:46:45.975Z,13.05
2019-05-21T21:48:54.133Z,13.04
2019-05-21T21:51:01.070Z,13.02
2019-05-21T21:53:07.854Z,13.02
2019-05-21T21:55:14.885Z,13.03
2019-05-21T21:57:21.394Z,13.03
2019-05-21T21:59:27.929Z,13.01
2019-05-21T22:01:54.572Z,13.00
2019-05-21T22:04:04.798Z,13.01
2019-05-21T22:06:14.127Z,13.01
2019-05-21T22:08:21.027Z,13.00
2019-05-21T22:10:28.054Z,12.99
2019-05-21T22:12:34.607Z,12.98
2019-05-21T22:14:50.494Z,12.98
2019-05-21T22:16:51.885Z,12.95
2019-05-21T22:18:59.250Z,12.94
2019-05-21T22:21:05.772Z,12.91
2019-05-21T22:23:12.806Z,12.91
2019-05-21T22:25:20.302Z,12.90
2019-05-21T22:27:27.001Z,12.90
2019-05-21T22:29:33.566Z,12.87
2019-05-21T22:31:41.500Z,12.87
2019-05-21T22:33:47.909Z,12.84
2019-05-21T22:35:54.552Z,12.84
2019-05-21T22:38:01.025Z,12.85
2019-05-21T22:40:08.392Z,12.85
2019-05-21T22:42:15.923Z,12.84
2019-05-21T22:44:22.420Z,12.81
2019-05-21T22:46:28.972Z,12.80
2019-05-21T22:48:35.587Z,12.77
2019-05-21T22:50:42.144Z,12.74
2019-05-21T22:52:48.652Z,12.72
2019-05-21T22:54:55.365Z,12.70
2019-05-21T22:57:01.815Z,12.68
2019-05-21T22:59:08.417Z,12.65
2019-05-21T23:01:16.016Z,12.61
2019-05-21T23:03:22.886Z,12.61
2019-05-21T23:05:29.383Z,12.60
2019-05-21T23:07:36.097Z,12.59
2019-05-21T23:09:42.611Z,12.58
2019-05-21T23:11:49.073Z,12.58
2019-05-21T23:13:55.586Z,12.57
2019-05-21T23:16:05.057Z,12.54
2019-05-21T23:18:29.812Z,12.54
2019-05-21T23:20:47.288Z,12.53
2019-05-21T23:22:58.626Z,12.54
2019-05-21T23:25:10.633Z,12.56
2019-05-21T23:27:17.737Z,12.56
2019-05-21T23:29:24.639Z,12.53
2019-05-21T23:31:32.326Z,12.52
2019-05-21T23:33:38.893Z,12.52
2019-05-21T23:35:45.979Z,12.51
2019-05-21T23:37:53.260Z,12.52
2019-05-21T23:40:00.855Z,12.48
2019-05-21T23:42:08.801Z,12.49
2019-05-21T23:44:15.777Z,12.47
2019-05-21T23:46:23.127Z,12.44
2019-05-21T23:48:30.411Z,12.41
2019-05-21T23:50:37.009Z,12.41
2019-05-21T23:52:44.562Z,12.39
2019-05-21T23:54:51.509Z,12.35
2019-05-21T23:56:59.843Z,12.33
2019-05-21T23:59:08.046Z,12.32
